Terminal Aerodrome Forecast
Issued by NWS

Home | Current Version | Previous Version | Graphics & Text | Print | Product List | Glossary On
Versions: 1 2 3 4 5 6 7 8 9 10 11 12 13 14 15 16 17 18 19 20 21 22 23 24 25 26 27
000
FTUS43 KABR 160400 AAB
TAFATY
TAF AMD
KATY 160440Z 1605/1624 35024G34KT 5SM -SN BLSN OVC016
     FM161100 35019KT 5SM BLSN OVC015
     FM161200 33011KT P6SM OVC010=

USA.gov is the U.S. government's official web portal to all federal, state and local government web resources and services.